Tiempo atmosférico en la estación meteorológica de El Bosque, Cádiz (295 m.)



Fecha
DESCASC
Temp. máxima en grados centígrados (hora)
DESCASC
Temp. mínima en grados centígrados (hora)
DESCASC
Temp. media en grados centígrados
DESCASC
Racha de viento máxima en m/sg (hora)
DESCASC
Velocidad máxima media en intervalos de 10 minutos(hora)
DESCASC
Precipitaciones diarias en mm
DESCASC
Precipitaciones de 00:00 a 06:00 en mm
DESCASC
Precipitaciones de 06:00 a 12:00 en mm
DESCASC
Precipitaciones de 12:00 a 18:00 en mm
DESCASC
Precipitaciones de 18:00 a 24:00 en mm
DESCASC
30-12-2019 -- (--) -- (--) -- -- (--) -- (--) -- 0 0 0 --
04-01-2020 14.3 (14:20) 2.6 (00:00) 8.5 3.06 (20:20) 2.22 (17:40) 0.2 0 0.2 0 0
08-01-2020 19.2 (16:10) 3.6 (00:00) 11.4 3.89 (23:50) 2.22 (19:40) 0 0 0 0 0
07-01-2020 17.6 (15:00) 3.2 (00:00) 10.4 3.89 (02:00) 2.22 (01:30) 0 0 0 0 0
05-01-2020 16.5 (15:30) 5.3 (00:00) 10.9 4.17 (14:30) 1.94 (14:20) 0 0 0 0 0
06-01-2020 16.6 (17:10) 4.6 (00:00) 10.6 4.72 (16:00) 2.5 (07:20) 0 0 0 0 0
12-01-2020 16.6 (16:50) 4 (00:00) 10.3 5 (14:50) 2.5 (20:50) 0 0 0 0 0
17-01-2020 17.4 (17:20) 6 (00:00) 11.7 5 (15:40) 2.78 (23:59) 0 0 0 0 0
01-01-2020 17.4 (14:50) 5.3 (00:00) 11.3 5.28 (22:00) 3.33 (21:50) 0 0 0 0 0
14-01-2020 15.3 (15:50) 4 (00:00) 9.7 5.56 (16:00) 2.78 (16:00) 0 0 0 0 0
13-01-2020 17.1 (15:30) 3.5 (00:00) 10.3 5.83 (09:00) 3.89 (08:40) 0 0 0 0 0
15-01-2020 18.7 (15:20) 3.7 (00:00) 11.2 5.83 (15:40) 3.61 (15:50) 0 0 0 0 0
03-01-2020 14.8 (13:30) 4.4 (00:00) 9.6 5.83 (16:40) 3.61 (16:30) 0 0 0 0 0
27-12-2019 22.3 (14:20) 9.2 (00:00) 15.7 5.83 (12:00) 3.33 (08:10) 0 0 0 0 0
16-01-2020 19.2 (15:10) 4.3 (00:00) 11.8 6.11 (14:30) 3.33 (14:00) 0 0 0 0 0
02-01-2020 17.8 (15:00) 5.6 (00:00) 11.7 6.39 (08:00) 3.61 (08:00) 0 0 0 0 0
11-01-2020 15.8 (16:50) 3.9 (00:00) 9.9 6.39 (00:10) 3.61 (00:10) 0 0 0 0 0
28-12-2019 20.8 (14:20) 7.5 (00:00) 14.1 6.67 (23:50) 3.89 (14:50) 0 0 0 0 0
21-01-2020 13.2 (16:10) 3.2 (00:00) 8.2 6.94 (23:50) 3.61 (23:59) 0.2 0 0 0 0.2
09-01-2020 17 (15:20) 5.4 (00:00) 11.2 7.22 (02:20) 3.89 (03:50) 0 0 0 0 0
18-01-2020 15.7 (14:00) 7.2 (00:00) 11.4 7.5 (23:50) 3.89 (06:40) 13.6 0 0 7.4 6.2
31-12-2019 17.4 (15:10) 5.1 (00:00) 11.2 8.06 (15:30) 5 (14:50) 0 0 0 0 0
29-12-2019 17.6 (14:10) 6 (00:00) 11.8 8.89 (14:30) 5.56 (14:50) 0 0 0 0 0
10-01-2020 14.1 (15:30) 4.5 (00:00) 9.3 9.44 (20:10) 5.28 (16:10) 0 0 0 0 0
22-01-2020 14.1 (13:30) 7.5 (00:00) 10.8 13.33 (23:10) 7.78 (21:50) 9.2 4.8 3.2 0.2 1
25-01-2020 11.1 (17:00) 8.9 (00:00) 10 13.89 (07:00) 7.5 (07:00) 40.8 5.8 25.8 8.4 0.8
24-01-2020 13.8 (11:10) 10 (00:00) 11.9 14.17 (18:30) 8.06 (18:30) 12.8 0.2 0 9.4 3.2
19-01-2020 14.3 (00:00) 7.6 (00:00) 11 14.72 (23:59) 6.39 (23:50) 1.8 0.8 0 1 0
23-01-2020 14.1 (12:30) 9 (00:00) 11.6 15 (10:10) 8.33 (10:10) 8.2 0 0.2 0.8 7.2
20-01-2020 11.5 (13:30) 5 (00:00) 8.3 15.56 (00:10) 6.94 (00:10) 1.2 0 0 1.2 0

Gráficas

Temp. máximas Temp. mínimas Temp. medias Precipitaciones Rachas de viento máximas Velocidades máximas media en intervalos de 10 minutos

Datos horarios

Fecha y hora oficial Temperatura (ºC) Velocidad del viento (km/h) Dirección del viento Racha (km/h) Dirección de racha Precipitación (mm) Presión (hPa) Tendencia (hPa) Humedad (%)
2020-01-25 23:00:00 9.5 3 Norte 10 Noroeste 0.8 -- -- 95
2020-01-25 22:00:00 9.7 0 Calma 9 Sudeste 0 -- -- 92
2020-01-25 21:00:00 9.8 5 Sudeste 17 Este 0 -- -- 91
2020-01-25 20:00:00 9.8 9 Sudeste 19 Este 0 -- -- 90
2020-01-25 19:00:00 10.1 9 Este 18 Este 0 -- -- 89
2020-01-25 18:00:00 10.9 12 Sudeste 26 Sudeste 0 -- -- 83
2020-01-25 17:00:00 11.1 15 Sudeste 30 Sur 0.8 -- -- 83
2020-01-25 16:00:00 10.4 17 Sudeste 34 Sudeste 2.4 -- -- 86
2020-01-25 15:00:00 10.2 16 Sur 30 Sudeste 1.2 -- -- 89
2020-01-25 14:00:00 10.3 15 Sudeste 30 Sudeste 1.6 -- -- 88
2020-01-25 13:00:00 9.5 12 Sudeste 26 Sudeste 2.4 -- -- 94
2020-01-25 12:00:00 9.1 10 Sudeste 22 Sudeste 4.8 -- -- 92
2020-01-25 11:00:00 9.6 3 Sur 30 Sudeste 6 -- -- 92
2020-01-25 10:00:00 9.6 14 Sudeste 28 Sudeste 5.2 -- -- 92
2020-01-25 09:00:00 9.4 4 Sudoeste 46 Sudeste 5.8 -- -- 91
2020-01-25 08:00:00 10.4 18 Sudeste 42 Sudeste 3.4 -- -- 84
2020-01-25 07:00:00 10.6 27 Sudeste 50 Sudeste 0.6 -- -- 83
2020-01-25 06:00:00 9.3 13 Sudeste 30 Sur 1.6 -- -- 89
2020-01-25 05:00:00 10.3 22 Sudeste 36 Sudeste 2.8 -- -- 87
2020-01-25 04:00:00 10.8 8 Sur 23 Sur 1.4 -- -- 89
2020-01-25 03:00:00 10.6 11 Sudeste 23 Sudeste 0 -- -- 89
2020-01-25 02:00:00 10.8 17 Sudeste 33 Sudeste 0 -- -- 86
2020-01-25 01:00:00 10.5 18 Sudeste 30 Este 0 -- -- 87
2020-01-25 00:00:00 10.2 12 Sudeste 23 Sudeste 0.2 -- -- 88
2020-01-24 23:00:00 10 9 Sudeste 23 Sudeste 0 -- -- 89
2020-01-24 22:00:00 11 12 Sudeste 24 Sur 0.4 -- -- 87
2020-01-24 21:00:00 11.2 19 Sur 46 Sudeste 2.4 -- -- 89
2020-01-24 20:00:00 12 25 Sudeste 45 Sudeste 0 -- -- 79
2020-01-24 19:00:00 11.1 27 Sudeste 51 Este 0.2 -- -- 83
2020-01-24 18:00:00 10 19 Sudeste 33 Este 5.6 -- -- 91
2020-01-24 17:00:00 10.6 12 Sur 47 Sudeste 2.4 -- -- 88
2020-01-24 16:00:00 11.7 22 Sudeste 44 Sudeste 0.2 -- -- 77
2020-01-24 15:00:00 11.9 24 Sudeste 41 Sudeste 0.8 -- -- 78
2020-01-24 14:00:00 12.1 19 Sudeste 47 Sudeste 0.4 -- -- 76
2020-01-24 13:00:00 13.1 28 Sudeste 47 Sudeste 0 -- -- 69
2020-01-24 12:00:00 13.4 23 Sudeste 39 Sudeste 0 -- -- 68
2020-01-24 11:00:00 13.6 19 Sudeste 32 Sudeste 0 -- -- 66
2020-01-24 10:00:00 11.7 15 Sudeste 33 Sudeste 0 -- -- 76
2020-01-24 09:00:00 10.8 13 Sudeste 28 Sudeste 0 -- -- 80
2020-01-24 08:00:00 10.6 16 Sudeste 28 Este 0 -- -- 81
2020-01-24 07:00:00 10.5 12 Sudeste 31 Sudeste 0 -- -- 81
2020-01-24 06:00:00 11 20 Sudeste 42 Sudeste 0 -- -- 79
2020-01-24 05:00:00 11 12 Sudeste 27 Sudeste 0 -- -- 76
2020-01-24 04:00:00 10.5 9 Sudeste 24 Sudeste 0 -- -- 80
2020-01-24 03:00:00 10.6 17 Sudeste 29 Sudeste 0 -- -- 79
2020-01-24 02:00:00 10.4 17 Sudeste 28 Este 0.2 -- -- 82
2020-01-24 01:00:00 10.2 12 Sudeste 40 Sudeste 0 -- -- 83
2020-01-24 00:00:00 10.5 22 Sudeste 45 Sudeste 0 -- -- 81
2020-01-23 23:00:00 9.2 16 Este 32 Este 0.8 -- -- 88
2020-01-23 22:00:00 9.4 15 Sudeste 35 Sudeste 2.6 -- -- 88
2020-01-23 21:00:00 9.5 17 Sudeste 36 Este 1 -- -- 87
2020-01-23 20:00:00 9.7 19 Sudeste 35 Este 2.4 -- -- 85
2020-01-23 19:00:00 10.7 12 Sudeste 27 Sudeste 0.4 -- -- 84
2020-01-23 18:00:00 11.1 14 Sudeste 29 Sudeste 0 -- -- 79
2020-01-23 17:00:00 11.1 14 Sudeste 34 Sudeste 0.8 -- -- 81
2020-01-23 16:00:00 12.6 18 Sudeste 35 Sudeste 0 -- -- 71
2020-01-23 15:00:00 13 17 Sudeste 40 Sudeste 0 -- -- 69
2020-01-23 14:00:00 13.8 23 Sudeste 43 Sudeste 0 -- -- 63
2020-01-23 13:00:00 13.9 22 Sudeste 46 Sudeste 0 -- -- 64
2020-01-23 12:00:00 13.4 25 Sudeste 50 Sudeste 0 -- -- 66
2020-01-23 11:00:00 11.5 24 Sudeste 54 Sudeste 0.2 -- -- 71
2020-01-23 10:00:00 10.8 25 Sudeste 41 Sudeste 0 -- -- 79
2020-01-23 09:00:00 11.2 19 Sudeste 38 Este 0 -- -- 73
2020-01-23 08:00:00 11.2 23 Sudeste 45 Sudeste 0 -- -- 74
2020-01-23 07:00:00 11 24 Sudeste 50 Sudeste 0 -- -- 74
2020-01-23 06:00:00 11.1 28 Sudeste 48 Sudeste 0 -- -- 72
2020-01-23 05:00:00 11.1 30 Sudeste 48 Sudeste 0 -- -- 73
2020-01-23 04:00:00 10.9 23 Sudeste 42 Sudeste 0 -- -- 75
2020-01-23 03:00:00 10.7 18 Sudeste 41 Sudeste 0 -- -- 77
2020-01-23 02:00:00 10.8 27 Sudeste 40 Sudeste 0 -- -- 76
2020-01-23 01:00:00 10.4 24 Sudeste 39 Sudeste 0 -- -- 78
2020-01-23 00:00:00 10.4 20 Sudeste 48 Este 0 -- -- 77
2020-01-22 23:00:00 10.1 23 Sudeste 39 Este 0 -- -- 76
2020-01-22 22:00:00 9.8 26 Sudeste 47 Sudeste 0.2 -- -- 73
2020-01-22 21:00:00 9 19 Sur 31 Sur 0 -- -- 86
2020-01-22 20:00:00 9.3 10 Sudeste 35 Sudeste 0 -- -- 83
2020-01-22 19:00:00 9.1 9 Sur 22 Sudeste 0.8 -- -- 89
2020-01-22 18:00:00 10.6 13 Sudeste 27 Sudeste 0.2 -- -- 74
2020-01-22 17:00:00 11.3 15 Sudeste 28 Sur 0 -- -- 67
2020-01-22 16:00:00 12.5 19 Sudeste 35 Este 0 -- -- 66
2020-01-22 15:00:00 13.3 12 Sudeste 29 Sudeste 0 -- -- 63
2020-01-22 14:00:00 13.2 15 Sur 32 Sur 0 -- -- 65
2020-01-22 13:00:00 12.8 12 Sudeste 28 Sudeste 0 -- -- 64
2020-01-22 12:00:00 11.1 22 Sudeste 35 Este 0 -- -- 66
2020-01-22 11:00:00 10.3 13 Este 31 Sudeste 0 -- -- 76
2020-01-22 10:00:00 9 8 Sudeste 20 Este 0 -- -- 86
2020-01-22 09:00:00 7.8 9 Sudeste 30 Este 0.2 -- -- 88
2020-01-22 08:00:00 7.9 16 Este 28 Este 0.4 -- -- 91
2020-01-22 07:00:00 7.5 9 Sudeste 14 Sudeste 2.6 -- -- 94
2020-01-22 06:00:00 7.8 6 Sudeste 15 Sudeste 2 -- -- 92
2020-01-22 05:00:00 8.1 7 Sur 15 Este 1.4 -- -- 91
2020-01-22 04:00:00 8.4 5 Sur 8 Sur 0.4 -- -- 92
2020-01-22 03:00:00 8.2 5 Sur 11 Sudoeste 0.6 -- -- 91
2020-01-22 02:00:00 8.1 4 Sur 12 Sur 0.2 -- -- 91
2020-01-22 01:00:00 8.4 6 Sur 20 Este 0.2 -- -- 86
2020-01-22 00:00:00 9.1 13 Sudeste 25 Sudeste 0.2 -- -- 79
2020-01-21 23:00:00 9.5 9 Sudeste 23 Este 0 -- -- 73
2020-01-21 22:00:00 9.8 9 Sudeste 19 Este 0 -- -- 72
2020-01-21 21:00:00 9.6 4 Sur 8 Sudeste 0 -- -- 78
2020-01-21 20:00:00 10 6 Sur 10 Sur 0 -- -- 74
2020-01-21 19:00:00 10.1 4 Sur 12 Sur 0 -- -- 75
2020-01-21 18:00:00 11.1 5 Sur 13 Sur 0 -- -- 71
2020-01-21 17:00:00 12.3 8 Sur 15 Sur 0 -- -- 65
2020-01-21 16:00:00 13.1 5 Sur 13 Norte 0 -- -- 60
2020-01-21 15:00:00 12.3 5 Noroeste 13 Noroeste 0 -- -- 64
2020-01-21 14:00:00 12.3 4 Oeste 9 Sudoeste 0 -- -- 63
2020-01-21 13:00:00 11.4 6 Sudoeste 16 Sudoeste 0 -- -- 66
2020-01-21 12:00:00 10.3 2 Este 8 Sudoeste 0 -- -- 68
2020-01-21 11:00:00 7.2 4 Noroeste 9 Norte 0 -- -- 83
2020-01-21 10:00:00 5.3 2 Noroeste 10 Este 0 -- -- 87
2020-01-21 09:00:00 3.5 3 Oeste 14 Norte 0 -- -- 90
2020-01-21 08:00:00 3.3 0 Calma 11 Este 0 -- -- 91
2020-01-21 07:00:00 3.7 5 Este 9 Sudeste 0 -- -- 92
2020-01-21 06:00:00 3.9 0 Calma 6 Este 0 -- -- 91
2020-01-21 05:00:00 5 2 Sudeste 11 Noroeste 0 -- -- 91
2020-01-21 04:00:00 5.5 5 Este 8 Sudeste 0 -- -- 82
2020-01-21 03:00:00 6.2 4 Nordeste 13 Este 0 -- -- 80
2020-01-21 02:00:00 7 0 Calma 9 Oeste 0 -- -- 79
2020-01-21 01:00:00 7.8 5 Oeste 11 Este 0 -- -- 71
2020-01-21 00:00:00 7.3 4 Sudoeste 10 Sudeste 0 -- -- 75
2020-01-20 23:00:00 7.8 4 Sur 21 Nordeste 0 -- -- 75
2020-01-20 22:00:00 7.9 4 Este 12 Nordeste 0 -- -- 71
2020-01-20 21:00:00 7.7 6 Este 18 Nordeste 0 -- -- 72
2020-01-20 20:00:00 7.7 8 Nordeste 32 Nordeste 0 -- -- 72
2020-01-20 19:00:00 5.9 4 Este 9 Sudeste 0 -- -- 82
2020-01-20 18:00:00 6.7 4 Este 35 Este 0 -- -- 81
2020-01-20 17:00:00 6.6 7 Sudeste 28 Sudeste 0.8 -- -- 81
2020-01-20 16:00:00 8.1 8 Este 17 Este 0.4 -- -- 76
2020-01-20 15:00:00 10.1 6 Sudeste 22 Sudeste 0 -- -- 59
2020-01-20 14:00:00 11.2 13 Sudeste 23 Sudeste 0 -- -- 58
2020-01-20 13:00:00 10.8 6 Sur 14 Sur 0 -- -- 55
2020-01-20 12:00:00 9.1 3 Norte 17 Sudeste 0 -- -- 62
2020-01-20 11:00:00 7.4 6 Este 24 Este 0 -- -- 62
2020-01-20 10:00:00 7.4 12 Este 35 Este 0 -- -- 60
2020-01-20 09:00:00 5.3 8 Nordeste 22 Nordeste 0 -- -- 68
2020-01-20 08:00:00 5.8 8 Este 24 Sudeste 0 -- -- 67
2020-01-20 07:00:00 5.7 14 Este 33 Este 0 -- -- 70
2020-01-20 06:00:00 6.1 7 Este 35 Este 0 -- -- 68
2020-01-20 05:00:00 6.5 18 Este 35 Sudeste 0 -- -- 68
2020-01-20 04:00:00 7 10 Sur 37 Sur 0 -- -- 66
2020-01-20 03:00:00 7 8 Sudeste 49 Este 0 -- -- 67
2020-01-20 02:00:00 7.2 9 Este 41 Este 0 -- -- 68
2020-01-20 01:00:00 7.4 10 Este 56 Norte 0 -- -- 69
2020-01-20 00:00:00 7.6 18 Nordeste 53 Nordeste 0 -- -- 70
2020-01-19 23:00:00 8.1 9 Este 30 Nordeste 0 -- -- 70
2020-01-19 22:00:00 8.3 15 Nordeste 37 Norte 0 -- -- 71
2020-01-19 21:00:00 9.2 9 Nordeste 26 Norte 0 -- -- 70
2020-01-19 20:00:00 8.7 3 Nordeste 8 Nordeste 0 -- -- 77
2020-01-19 19:00:00 8.7 4 Nordeste 23 Nordeste 0 -- -- 75
2020-01-19 18:00:00 9.8 15 Nordeste 35 Norte 0.2 -- -- 73
2020-01-19 17:00:00 9.5 15 Norte 40 Noroeste 0.8 -- -- 84
2020-01-19 16:00:00 11.7 9 Norte 27 Norte 0 -- -- 69
2020-01-19 15:00:00 12.4 18 Norte 33 Noroeste 0 -- -- 66
2020-01-19 14:00:00 12 18 Noroeste 31 Norte 0 -- -- 73
2020-01-19 13:00:00 10.7 16 Noroeste 30 Noroeste 0 -- -- 80
2020-01-19 12:00:00 10.5 10 Noroeste 23 Noroeste 0 -- -- 82
2020-01-19 11:00:00 9.5 9 Noroeste 20 Norte 0 -- -- 86
2020-01-19 10:00:00 8.6 9 Noroeste 16 Noroeste 0 -- -- 90
2020-01-19 09:00:00 8.4 7 Noroeste 18 Noroeste 0 -- -- 91
2020-01-19 08:00:00 8.4 10 Noroeste 20 Norte 0 -- -- 92
2020-01-19 07:00:00 8.9 9 Noroeste 24 Oeste 0 -- -- 92
2020-01-19 06:00:00 9.4 8 Noroeste 18 Noroeste 0 -- -- 94
2020-01-19 05:00:00 9.8 6 Noroeste 14 Noroeste 0 -- -- 93
2020-01-19 04:00:00 9.6 7 Noroeste 15 Norte 0 -- -- 95
2020-01-19 03:00:00 10.5 8 Norte 20 Noroeste 0 -- -- 93
2020-01-19 02:00:00 11.4 10 Noroeste 44 Noroeste 0.2 -- -- 91
2020-01-19 01:00:00 13.4 18 Noroeste 40 Oeste 0.6 -- -- 94
2020-01-19 00:00:00 14.3 13 Noroeste 27 Oeste 2.2 -- -- 96
2020-01-18 23:00:00 14.3 10 Oeste 24 Oeste 1 -- -- 96
2020-01-18 22:00:00 14.3 10 Oeste 25 Oeste 0.6 -- -- 96
2020-01-18 21:00:00 14.2 9 Oeste 21 Oeste 0.4 -- -- 96
2020-01-18 20:00:00 13.7 3 Sudoeste 8 Sur 0.6 -- -- 96
2020-01-18 19:00:00 13.4 2 Sudeste 8 Sur 1.4 -- -- 95
2020-01-18 18:00:00 13.4 6 Sudeste 11 Sudeste 3 -- -- 94
2020-01-18 17:00:00 13.5 3 Sudeste 8 Norte 3.6 -- -- 93
2020-01-18 16:00:00 14 6 Sur 16 Sudoeste 0.8 -- -- 89
2020-01-18 15:00:00 15 6 Sur 18 Sur 0 -- -- 80
2020-01-18 14:00:00 15.7 9 Sur 16 Sudeste 0 -- -- 73
2020-01-18 13:00:00 14.3 11 Sudeste 18 Sudeste 0 -- -- 73
2020-01-18 12:00:00 12.8 5 Sudeste 12 Este 0 -- -- 81
2020-01-18 11:00:00 11 3 Noroeste 8 Este 0 -- -- 84
2020-01-18 10:00:00 10.3 6 Este 10 Este 0 -- -- 83
2020-01-18 09:00:00 9.1 0 Calma 5 Norte 0 -- -- 81
2020-01-18 08:00:00 8.8 0 Calma 8 Nordeste 0 -- -- 81
2020-01-18 07:00:00 11.1 6 Sudeste 22 Este 0 -- -- 70
2020-01-18 06:00:00 7.8 2 Este 10 Este 0 -- -- 89
2020-01-18 05:00:00 8 0 Calma 19 Este 0 -- -- 88
2020-01-18 04:00:00 7.6 4 Este 12 Este 0 -- -- 91
2020-01-18 03:00:00 8.9 13 Este 22 Este 0 -- -- 83
2020-01-18 02:00:00 7.3 3 Este 8 Nordeste 0 -- -- 93
2020-01-18 01:00:00 7.9 3 Nordeste 15 Este 0 -- -- 92
2020-01-18 00:00:00 7.9 10 Sudeste 14 Sudeste 0 -- -- 88
2020-01-17 23:00:00 8.4 6 Sudeste 10 Sudeste 0 -- -- 87
2020-01-17 22:00:00 9.3 3 Este 10 Este 0 -- -- 84
2020-01-17 21:00:00 10.7 6 Este 10 Este 0 -- -- 83
2020-01-17 20:00:00 12 5 Norte 8 Norte 0 -- -- 80
2020-01-17 19:00:00 13.6 2 Norte 9 Norte 0 -- -- 78
2020-01-17 18:00:00 16.5 5 Noroeste 13 Oeste 0 -- -- 64
2020-01-17 17:00:00 17.1 6 Noroeste 15 Noroeste 0 -- -- 63
2020-01-17 16:00:00 17.2 6 Oeste 18 Oeste 0 -- -- 67
2020-01-17 15:00:00 17.1 4 Oeste 10 Oeste 0 -- -- 69
2020-01-17 14:00:00 16.4 4 Noroeste 9 Oeste 0 -- -- 73
2020-01-17 13:00:00 14.6 2 Oeste 4 Oeste 0 -- -- 72
2020-01-17 12:00:00 11.6 0 Calma 6 Este 0 -- -- 79
2020-01-17 11:00:00 10.2 4 Sudeste 8 Sudeste 0 -- -- 77
2020-01-17 10:00:00 8.8 2 Sudeste 10 Este 0 -- -- 80
2020-01-17 09:00:00 8.2 3 Nordeste 9 Este 0 -- -- 80
2020-01-17 08:00:00 7.6 0 Calma 7 Sur 0 -- -- 76
2020-01-17 07:00:00 7.3 2 Sudoeste 9 Este 0 -- -- 74
2020-01-17 06:00:00 6.3 2 Noroeste 14 Este 0 -- -- 77
2020-01-17 05:00:00 6.3 4 Nordeste 11 Sudeste 0 -- -- 77
2020-01-17 04:00:00 6.7 4 Sudeste 10 Este 0 -- -- 77
2020-01-17 03:00:00 6 3 Norte 10 Este 0 -- -- 84
2020-01-17 02:00:00 6.6 3 Sudeste 15 Sudeste 0 -- -- 78
2020-01-17 01:00:00 7.2 4 Nordeste 9 Este 0 -- -- 82
2020-01-17 00:00:00 7.7 2 Este 13 Este 0 -- -- 82
2020-01-16 23:00:00 8.5 5 Este 13 Este 0 -- -- 83
2020-01-16 22:00:00 8.8 4 Este 14 Este 0 -- -- 78
2020-01-16 21:00:00 9.8 8 Este 10 Este 0 -- -- 73
2020-01-16 20:00:00 11.5 5 Este 9 Sudeste 0 -- -- 66
2020-01-16 19:00:00 13.7 5 Sudeste 10 Sur 0 -- -- 58
2020-01-16 18:00:00 17.3 5 Sur 14 Sur 0 -- -- 50
2020-01-16 17:00:00 18.5 8 Sur 19 Sudoeste 0 -- -- 38
2020-01-16 16:00:00 19 9 Sur 18 Oeste 0 -- -- 33
2020-01-16 15:00:00 19 10 Sudoeste 22 Sudoeste 0 -- -- 32
2020-01-16 14:00:00 18.8 12 Sudoeste 18 Sudoeste 0 -- -- 37
2020-01-16 13:00:00 18.1 8 Sur 15 Sudoeste 0 -- -- 36
2020-01-16 12:00:00 14.6 0 Calma 5 Noroeste 0 -- -- 53
2020-01-16 11:00:00 10.3 3 Noroeste 10 Sudeste 0 -- -- 63
2020-01-16 10:00:00 7.6 5 Sudeste 8 Sudeste 0 -- -- 64
2020-01-16 09:00:00 4.6 2 Nordeste 5 Este 0 -- -- 69
2020-01-16 08:00:00 4.6 0 Calma 8 Este 0 -- -- 67
2020-01-16 07:00:00 4.6 0 Calma 7 Sudeste 0 -- -- 66
2020-01-16 06:00:00 4.7 4 Sudeste 6 Sudeste 0 -- -- 67
2020-01-16 05:00:00 5.7 7 Este 10 Este 0 -- -- 63
2020-01-16 04:00:00 5.6 0 Calma 3 Sudeste 0 -- -- 64
2020-01-16 03:00:00 6 0 Calma 12 Este 0 -- -- 64
2020-01-16 02:00:00 6 2 Este 4 Noroeste 0 -- -- 65
2020-01-16 01:00:00 6.3 0 Calma 11 Este 0 -- -- 64
2020-01-16 00:00:00 6.7 3 Este 7 Este 0 -- -- 61
2020-01-15 23:00:00 7.1 0 Calma 8 Este 0 -- -- 66
2020-01-15 22:00:00 7.5 0 Calma 13 Sudeste 0 -- -- 66
2020-01-15 21:00:00 9 3 Este 14 Este 0 -- -- 63
2020-01-15 20:00:00 10.3 8 Este 14 Este 0 -- -- 60
2020-01-15 19:00:00 12.9 6 Sudeste 9 Sudeste 0 -- -- 52
2020-01-15 18:00:00 16.2 7 Sur 15 Sudoeste 0 -- -- 41
2020-01-15 17:00:00 17.9 9 Sudoeste 18 Sudoeste 0 -- -- 40
2020-01-15 16:00:00 18.5 9 Sudoeste 21 Sudoeste 0 -- -- 35
2020-01-15 15:00:00 18.4 12 Sudoeste 19 Oeste 0 -- -- 35
2020-01-15 14:00:00 18.1 8 Sur 18 Sur 0 -- -- 41
2020-01-15 13:00:00 16.9 8 Sur 14 Sur 0 -- -- 43
2020-01-15 12:00:00 13.3 3 Sur 10 Sudoeste 0 -- -- 62
2020-01-15 11:00:00 9.1 2 Noroeste 7 Sudeste 0 -- -- 78
2020-01-15 10:00:00 7.1 0 Calma 6 Nordeste 0 -- -- 85
2020-01-15 09:00:00 3.9 5 Norte 9 Nordeste 0 -- -- 93
2020-01-15 08:00:00 4 2 Norte 5 Noroeste 0 -- -- 91
2020-01-15 07:00:00 4.4 0 Calma 6 Este 0 -- -- 89
2020-01-15 06:00:00 4.9 0 Calma 3 Noroeste 0 -- -- 91
2020-01-15 05:00:00 5 0 Calma 4 Noroeste 0 -- -- 89
2020-01-15 04:00:00 5.4 0 Calma 9 Sudeste 0 -- -- 89
2020-01-15 03:00:00 5.9 0 Calma 7 Este 0 -- -- 87
2020-01-15 02:00:00 5.7 0 Calma 9 Este 0 -- -- 88
2020-01-15 01:00:00 6.1 3 Este 9 Este 0 -- -- 87
2020-01-15 00:00:00 6.5 6 Sudeste 10 Sudeste 0 -- -- 86
2020-01-14 23:00:00 7.1 5 Norte 11 Nordeste 0 -- -- 83
2020-01-14 22:00:00 8.2 6 Este 13 Este 0 -- -- 79
2020-01-14 21:00:00 7.8 0 Calma 12 Sudeste 0 -- -- 80
2020-01-14 20:00:00 8.8 5 Este 10 Este 0 -- -- 76
2020-01-14 19:00:00 10.8 3 Este 6 Este 0 -- -- 69
2020-01-14 18:00:00 12.8 3 Noroeste 13 Oeste 0 -- -- 62
2020-01-14 17:00:00 14.4 6 Oeste 17 Norte 0 -- -- 55
2020-01-14 16:00:00 15.2 10 Norte 20 Norte 0 -- -- 51
2020-01-14 15:00:00 14.7 10 Noroeste 17 Noroeste 0 -- -- 53
2020-01-14 14:00:00 13.8 4 Oeste 12 Noroeste 0 -- -- 55
2020-01-14 13:00:00 13.3 5 Oeste 13 Oeste 0 -- -- 60
2020-01-14 12:00:00 11.8 3 Noroeste 10 Sudoeste 0 -- -- 80
2020-01-14 11:00:00 8.5 0 Calma 2 Oeste 0 -- -- 87
2020-01-14 10:00:00 5.4 0 Calma 5 Este 0 -- -- 94
2020-01-14 09:00:00 4.4 0 Calma 4 Este 0 -- -- 96
2020-01-14 08:00:00 4.1 0 Calma 6 Sudeste 0 -- -- 94
2020-01-14 07:00:00 4.2 0 Calma 4 Este 0 -- -- 93
2020-01-14 06:00:00 4.6 0 Calma 5 Este 0 -- -- 92
2020-01-14 05:00:00 4.8 0 Calma 10 Este 0 -- -- 91
2020-01-14 04:00:00 4.9 5 Sudeste 11 Este 0 -- -- 91
2020-01-14 03:00:00 4.9 0 Calma 9 Este 0 -- -- 91
2020-01-14 02:00:00 5 0 Calma 7 Este 0 -- -- 91
2020-01-14 01:00:00 5.7 3 Sudeste 8 Este 0 -- -- 91
2020-01-14 00:00:00 6.1 4 Norte 13 Sudeste 0 -- -- 88
2020-01-13 23:00:00 7.4 2 Nordeste 10 Nordeste 0 -- -- 86
2020-01-13 22:00:00 8.1 0 Calma 9 Este 0 -- -- 83
2020-01-13 21:00:00 9.6 0 Calma 8 Este 0 -- -- 80
2020-01-13 20:00:00 9.8 4 Sudeste 8 Este 0 -- -- 76
2020-01-13 19:00:00 11.6 5 Norte 9 Norte 0 -- -- 66
2020-01-13 18:00:00 14.3 2 Noroeste 8 Noroeste 0 -- -- 58
2020-01-13 17:00:00 15.5 6 Noroeste 12 Noroeste 0 -- -- 55
2020-01-13 16:00:00 16.8 5 Oeste 12 Oeste 0 -- -- 50
2020-01-13 15:00:00 16.1 5 Noroeste 12 Noroeste 0 -- -- 50
2020-01-13 14:00:00 16.1 4 Oeste 15 Sur 0 -- -- 47
2020-01-13 13:00:00 15.8 7 Sudoeste 16 Sudoeste 0 -- -- 50
2020-01-13 12:00:00 14.5 8 Sur 16 Sur 0 -- -- 58
2020-01-13 11:00:00 12.4 9 Sudeste 19 Sudeste 0 -- -- 59
2020-01-13 10:00:00 8.2 11 Sudeste 20 Este 0 -- -- 68
2020-01-13 09:00:00 5.7 13 Sudeste 21 Este 0 -- -- 76
2020-01-13 08:00:00 4.7 11 Sudeste 21 Sudeste 0 -- -- 79
2020-01-13 07:00:00 3.7 9 Sudeste 19 Sudeste 0 -- -- 85
2020-01-13 06:00:00 4 13 Sudeste 18 Sudeste 0 -- -- 84
2020-01-13 05:00:00 3.9 2 Nordeste 14 Sudeste 0 -- -- 86
2020-01-13 04:00:00 4.4 4 Este 13 Este 0 -- -- 86
2020-01-13 03:00:00 4.2 0 Calma 10 Este 0 -- -- 88
2020-01-13 02:00:00 4.8 3 Este 11 Este 0 -- -- 85
2020-01-13 01:00:00 5 2 Sudeste 9 Nordeste 0 -- -- 87
2020-01-13 00:00:00 5.8 4 Este 12 Sudeste 0 -- -- 84
2020-01-12 23:00:00 5.8 8 Este 11 Este 0 -- -- 87
2020-01-12 22:00:00 7.3 0 Calma 13 Este 0 -- -- 79
2020-01-12 21:00:00 7.4 9 Sudeste 13 Sudeste 0 -- -- 82
2020-01-12 20:00:00 9.2 5 Este 8 Este 0 -- -- 74
2020-01-12 19:00:00 11.6 3 Nordeste 13 Norte 0 -- -- 63
2020-01-12 18:00:00 15.1 3 Norte 12 Oeste 0 -- -- 53
2020-01-12 17:00:00 16.5 6 Sudoeste 17 Oeste 0 -- -- 51
2020-01-12 16:00:00 16.2 9 Oeste 18 Oeste 0 -- -- 51
2020-01-12 15:00:00 16.2 6 Oeste 18 Oeste 0 -- -- 54
2020-01-12 14:00:00 15.4 5 Oeste 12 Oeste 0 -- -- 54
2020-01-12 13:00:00 14.7 4 Oeste 8 Oeste 0 -- -- 54
2020-01-12 12:00:00 12.6 3 Oeste 5 Oeste 0 -- -- 65
2020-01-12 11:00:00 9.5 2 Sur 4 Sudoeste 0 -- -- 79
2020-01-12 10:00:00 6.9 0 Calma 3 Norte 0 -- -- 87
2020-01-12 09:00:00 4.5 3 Nordeste 7 Sudeste 0 -- -- 91
2020-01-12 08:00:00 4.3 0 Calma 4 Este 0 -- -- 90
2020-01-12 07:00:00 4.4 0 Calma 9 Este 0 -- -- 90
2020-01-12 06:00:00 4.9 2 Este 9 Este 0 -- -- 88
2020-01-12 05:00:00 5.2 0 Calma 6 Este 0 -- -- 89
2020-01-12 04:00:00 5.4 0 Calma 11 Este 0 -- -- 87
2020-01-12 03:00:00 5.3 3 Este 11 Sudeste 0 -- -- 90
2020-01-12 02:00:00 5.6 9 Sudeste 14 Sudeste 0 -- -- 89
2020-01-12 01:00:00 5.6 6 Este 10 Este 0 -- -- 89
2020-01-12 00:00:00 6.5 6 Este 10 Este 0 -- -- 87
2020-01-11 23:00:00 6.7 3 Este 9 Este 0 -- -- 86
2020-01-11 22:00:00 7.1 0 Calma 8 Sudeste 0 -- -- 85
2020-01-11 21:00:00 8.6 5 Sudeste 10 Nordeste 0 -- -- 79
2020-01-11 20:00:00 10.3 5 Este 12 Este 0 -- -- 73
2020-01-11 19:00:00 12.5 4 Sudoeste 6 Sudoeste 0 -- -- 66
2020-01-11 18:00:00 13.9 2 Noroeste 6 Noroeste 0 -- -- 60
2020-01-11 17:00:00 15.8 3 Oeste 11 Oeste 0 -- -- 51
2020-01-11 16:00:00 14.9 5 Oeste 10 Oeste 0 -- -- 56
2020-01-11 15:00:00 13.7 3 Noroeste 18 Norte 0 -- -- 60
2020-01-11 14:00:00 14.5 5 Noroeste 10 Norte 0 -- -- 60
2020-01-11 13:00:00 14.1 3 Noroeste 7 Oeste 0 -- -- 60
2020-01-11 12:00:00 13.5 5 Noroeste 10 Norte 0 -- -- 58
2020-01-11 11:00:00 11.1 3 Nordeste 4 Norte 0 -- -- 68
2020-01-11 10:00:00 7.6 2 Este 8 Sudeste 0 -- -- 81
2020-01-11 09:00:00 5 0 Calma 10 Este 0 -- -- 87
2020-01-11 08:00:00 4.4 7 Este 9 Este 0 -- -- 91
2020-01-11 07:00:00 4 0 Calma 6 Sudoeste 0 -- -- 84
2020-01-11 06:00:00 4.9 0 Calma 6 Este 0 -- -- 81
2020-01-11 05:00:00 5.3 0 Calma 3 Sudeste 0 -- -- 78
2020-01-11 04:00:00 5.5 0 Calma 2 Noroeste 0 -- -- 77
2020-01-11 03:00:00 6.4 0 Calma 3 Norte 0 -- -- 71
2020-01-11 02:00:00 7.3 2 Noroeste 7 Sudeste 0 -- -- 65
2020-01-11 01:00:00 9.4 2 Sudeste 23 Este 0 -- -- 55
2020-01-11 00:00:00 10.2 10 Este 28 Este 0 -- -- 53
2020-01-10 23:00:00 9.3 8 Nordeste 15 Nordeste 0 -- -- 58
2020-01-10 22:00:00 8.5 3 Sudeste 12 Sur 0 -- -- 73
2020-01-10 21:00:00 9.6 2 Sudoeste 34 Nordeste 0 -- -- 71
2020-01-10 20:00:00 10.8 6 Norte 26 Norte 0 -- -- 66
2020-01-10 19:00:00 10.3 8 Norte 22 Noroeste 0 -- -- 75
2020-01-10 18:00:00 11.8 10 Noroeste 23 Noroeste 0 -- -- 71
2020-01-10 17:00:00 13.5 14 Norte 31 Noroeste 0 -- -- 64
2020-01-10 16:00:00 14 14 Noroeste 30 Norte 0 -- -- 68
2020-01-10 15:00:00 13.1 12 Noroeste 28 Oeste 0 -- -- 76
2020-01-10 14:00:00 13.4 8 Oeste 17 Oeste 0 -- -- 76
2020-01-10 13:00:00 11.9 3 Sudoeste 11 Sudoeste 0 -- -- 80
2020-01-10 12:00:00 10.8 4 Oeste 9 Oeste 0 -- -- 85
2020-01-10 11:00:00 8.9 0 Calma 5 Oeste 0 -- -- 90
2020-01-10 10:00:00 6.6 0 Calma 9 Este 0 -- -- 96
2020-01-10 09:00:00 5.4 6 Este 9 Este 0 -- -- 96
2020-01-10 08:00:00 5.7 0 Calma 9 Oeste 0 -- -- 96
2020-01-10 07:00:00 6 0 Calma 3 Noroeste 0 -- -- 97
2020-01-10 06:00:00 5.3 0 Calma 4 Sudeste 0 -- -- 97
2020-01-10 05:00:00 5 2 Sudeste 5 Este 0 -- -- 97
2020-01-10 04:00:00 4.7 0 Calma 6 Este 0 -- -- 95
2020-01-10 03:00:00 5.1 4 Este 8 Sudeste 0 -- -- 94
2020-01-10 02:00:00 5.7 3 Este 6 Este 0 -- -- 95
2020-01-10 01:00:00 5.9 4 Sudeste 6 Sudeste 0 -- -- 93
2020-01-10 00:00:00 6.6 0 Calma 6 Este 0 -- -- 91
2020-01-09 23:00:00 7.3 0 Calma 9 Este 0 -- -- 89
2020-01-09 22:00:00 8.1 5 Este 9 Sudeste 0 -- -- 86
2020-01-09 21:00:00 8.8 2 Sudeste 8 Este 0 -- -- 83
2020-01-09 20:00:00 10.3 4 Nordeste 12 Nordeste 0 -- -- 78
2020-01-09 19:00:00 12.1 8 Norte 16 Norte 0 -- -- 73
2020-01-09 18:00:00 15.4 2 Oeste 12 Noroeste 0 -- -- 58
2020-01-09 17:00:00 16.1 7 Oeste 20 Oeste 0 -- -- 58
2020-01-09 16:00:00 15.9 8 Noroeste 21 Oeste 0 -- -- 61
2020-01-09 15:00:00 16.8 6 Sudoeste 14 Sudoeste 0 -- -- 57
2020-01-09 14:00:00 16.4 6 Oeste 13 Sudoeste 0 -- -- 59
2020-01-09 13:00:00 15.9 4 Sudoeste 10 Sur 0 -- -- 58
2020-01-09 12:00:00 14.5 4 Sudoeste 7 Sudoeste 0 -- -- 62
2020-01-09 11:00:00 11.5 3 Norte 13 Sudeste 0 -- -- 70
2020-01-09 10:00:00 8.4 2 Nordeste 18 Este 0 -- -- 79
2020-01-09 09:00:00 5.5 9 Sudeste 18 Este 0 -- -- 88
2020-01-09 08:00:00 6 10 Sudeste 16 Sudeste 0 -- -- 87
2020-01-09 07:00:00 6 9 Sudeste 17 Sudeste 0 -- -- 86
2020-01-09 06:00:00 6.4 9 Sudeste 18 Sudeste 0 -- -- 85
2020-01-09 05:00:00 6.9 12 Sudeste 17 Sudeste 0 -- -- 86
2020-01-09 04:00:00 7.2 11 Sudeste 19 Sudeste 0 -- -- 84
2020-01-09 03:00:00 8.3 12 Sudeste 26 Sudeste 0 -- -- 84
2020-01-09 02:00:00 8.8 12 Sudeste 21 Este 0 -- -- 82
2020-01-09 01:00:00 9 13 Sudeste 22 Este 0 -- -- 81
2020-01-09 00:00:00 7.4 0 Calma 14 Sudeste 0 -- -- 85
2020-01-08 23:00:00 7.1 8 Sudeste 10 Sudeste 0 -- -- 86
2020-01-08 22:00:00 7.5 3 Este 12 Este 0 -- -- 83
2020-01-08 21:00:00 9.4 4 Sudeste 10 Este 0 -- -- 74
2020-01-08 20:00:00 10.5 8 Este 13 Sudeste 0 -- -- 71
2020-01-08 19:00:00 13.4 6 Este 8 Este 0 -- -- 60
2020-01-08 18:00:00 17.3 2 Noroeste 8 Noroeste 0 -- -- 50
2020-01-08 17:00:00 18.5 4 Noroeste 8 Oeste 0 -- -- 44
2020-01-08 16:00:00 19 5 Noroeste 9 Noroeste 0 -- -- 42
2020-01-08 15:00:00 18.1 6 Noroeste 12 Noroeste 0 -- -- 45
2020-01-08 14:00:00 18 5 Oeste 9 Noroeste 0 -- -- 45
2020-01-08 13:00:00 16.4 4 Norte 8 Noroeste 0 -- -- 49
2020-01-08 12:00:00 13.9 0 Calma 3 Noroeste 0 -- -- 58
2020-01-08 11:00:00 10.7 0 Calma 3 Sudoeste 0 -- -- 68
2020-01-08 10:00:00 7.4 0 Calma 4 Este 0 -- -- 81
2020-01-08 09:00:00 3.8 0 Calma 5 Sudeste 0 -- -- 85
2020-01-08 08:00:00 3.6 0 Calma 6 Este 0 -- -- 88
2020-01-08 07:00:00 4.4 3 Este 5 Sudeste 0 -- -- 88
2020-01-08 06:00:00 4.6 0 Calma 6 Este 0 -- -- 87
2020-01-08 05:00:00 4.8 0 Calma 4 Sudeste 0 -- -- 88
2020-01-08 04:00:00 5 2 Este 9 Sudeste 0 -- -- 89
2020-01-08 03:00:00 5.2 5 Sudeste 9 Este 0 -- -- 88
2020-01-08 02:00:00 5.7 0 Calma 6 Sudeste 0 -- -- 88
2020-01-08 01:00:00 6.5 4 Este 10 Este 0 -- -- 84
2020-01-08 00:00:00 6.7 0 Calma 10 Este 0 -- -- 88
2020-01-07 23:00:00 7.1 0 Calma 5 Este 0 -- -- 89
2020-01-07 22:00:00 7.9 4 Este 10 Este 0 -- -- 86
2020-01-07 21:00:00 9 0 Calma 10 Este 0 -- -- 84
2020-01-07 20:00:00 9.9 2 Nordeste 13 Este 0 -- -- 82
2020-01-07 19:00:00 12.7 6 Este 8 Este 0 -- -- 71
2020-01-07 18:00:00 16.6 0 Calma 6 Oeste 0 -- -- 56
2020-01-07 17:00:00 17.6 4 Oeste 12 Oeste 0 -- -- 51
2020-01-07 16:00:00 17.5 6 Noroeste 12 Oeste 0 -- -- 58
2020-01-07 15:00:00 17.6 5 Noroeste 10 Noroeste 0 -- -- 59
2020-01-07 14:00:00 16.3 3 Noroeste 9 Sudoeste 0 -- -- 61
2020-01-07 13:00:00 14.3 5 Norte 8 Noroeste 0 -- -- 64
2020-01-07 12:00:00 13 0 Calma 12 Noroeste 0 -- -- 72
2020-01-07 11:00:00 10.1 2 Sudeste 4 Sudeste 0 -- -- 79
2020-01-07 10:00:00 6.5 0 Calma 7 Este 0 -- -- 87
2020-01-07 09:00:00 3.5 3 Norte 11 Norte 0 -- -- 95
2020-01-07 08:00:00 3.5 8 Sudeste 13 Sudeste 0 -- -- 93
2020-01-07 07:00:00 4.2 3 Norte 9 Norte 0 -- -- 94
2020-01-07 06:00:00 4.4 4 Este 9 Nordeste 0 -- -- 93
2020-01-07 05:00:00 4.4 3 Este 10 Este 0 -- -- 94
2020-01-07 04:00:00 5 4 Nordeste 10 Sudeste 0 -- -- 95
2020-01-07 03:00:00 5.2 2 Sudeste 12 Sudeste 0 -- -- 95
2020-01-07 02:00:00 5 8 Sudeste 14 Este 0 -- -- 94
2020-01-07 01:00:00 5.6 3 Este 7 Este 0 -- -- 93
2020-01-07 00:00:00 6.2 3 Este 10 Este 0 -- -- 92
2020-01-06 23:00:00 6.6 0 Calma 12 Este 0 -- -- 91
2020-01-06 22:00:00 7.2 0 Calma 15 Este 0 -- -- 89
2020-01-06 21:00:00 7.7 6 Este 15 Este 0 -- -- 88
2020-01-06 20:00:00 9.3 3 Sudeste 9 Este 0 -- -- 82
2020-01-06 19:00:00 11.4 0 Calma 9 Sur 0 -- -- 76
2020-01-06 18:00:00 15.4 2 Oeste 6 Oeste 0 -- -- 61
2020-01-06 17:00:00 16.4 0 Calma 14 Norte 0 -- -- 57
2020-01-06 16:00:00 16.1 8 Noroeste 17 Noroeste 0 -- -- 57
2020-01-06 15:00:00 16.1 4 Noroeste 13 Norte 0 -- -- 55
2020-01-06 14:00:00 15.1 5 Noroeste 13 Noroeste 0 -- -- 58
2020-01-06 13:00:00 14 5 Noroeste 10 Noroeste 0 -- -- 65
2020-01-06 12:00:00 12.9 3 Oeste 5 Noroeste 0 -- -- 67
2020-01-06 11:00:00 10.9 3 Sur 6 Noroeste 0 -- -- 79
2020-01-06 10:00:00 7.4 2 Este 4 Noroeste 0 -- -- 87